createdAt,value
2022-10-20T00:02:05.877Z,9.85
2022-10-20T00:04:32.879Z,9.76
2022-10-20T00:06:59.854Z,9.70
2022-10-20T00:09:26.766Z,9.60
2022-10-20T00:11:53.623Z,9.58
2022-10-20T00:14:20.748Z,9.56
2022-10-20T00:16:47.718Z,9.61
2022-10-20T00:19:14.614Z,9.64
2022-10-20T00:21:41.541Z,9.69
2022-10-20T00:24:08.466Z,9.80
2022-10-20T00:26:35.330Z,9.82
2022-10-20T00:29:03.800Z,9.67
2022-10-20T00:31:31.016Z,9.71
2022-10-20T00:33:58.150Z,9.73
2022-10-20T00:36:25.229Z,9.64
2022-10-20T00:38:57.887Z,9.69
2022-10-20T00:41:25.195Z,9.86
2022-10-20T00:43:57.893Z,9.94
2022-10-20T00:46:30.662Z,9.94
2022-10-20T00:49:02.970Z,9.96
2022-10-20T00:51:33.173Z,9.94
2022-10-20T00:54:13.537Z,9.97
2022-10-20T00:56:43.430Z,9.94
2022-10-20T00:59:13.654Z,9.97
2022-10-20T01:01:41.631Z,10.00
2022-10-20T01:04:09.103Z,10.00
2022-10-20T01:06:36.573Z,9.98
2022-10-20T01:09:04.381Z,10.04
2022-10-20T01:11:47.983Z,10.18
2022-10-20T01:14:52.548Z,10.33
2022-10-20T01:17:34.928Z,10.19
2022-10-20T01:20:07.894Z,10.13
2022-10-20T01:22:37.933Z,10.12
2022-10-20T01:25:29.586Z,10.14
2022-10-20T01:28:06.962Z,10.18
2022-10-20T01:30:42.548Z,10.24
2022-10-20T01:36:07.294Z,10.29
2022-10-20T01:38:44.472Z,10.28
2022-10-20T01:41:49.650Z,10.25
2022-10-20T01:44:18.721Z,10.22
2022-10-20T01:46:46.481Z,10.18
2022-10-20T01:49:14.634Z,10.13
2022-10-20T01:54:23.715Z,10.22
2022-10-20T01:57:17.810Z,10.20
2022-10-20T01:59:47.394Z,10.36
2022-10-20T02:02:26.425Z,10.69
2022-10-20T02:05:11.620Z,10.20
2022-10-20T02:07:42.008Z,9.92
2022-10-20T02:10:31.418Z,9.88
2022-10-20T02:13:05.092Z,9.88
2022-10-20T02:15:33.587Z,9.95
2022-10-20T02:18:05.578Z,9.99
2022-10-20T02:20:34.478Z,9.99
2022-10-20T02:23:04.987Z,10.00
2022-10-20T02:25:33.617Z,10.09
2022-10-20T02:28:02.477Z,10.09
2022-10-20T02:30:30.805Z,10.12
2022-10-20T02:32:57.666Z,10.16
2022-10-20T02:35:31.072Z,10.17
2022-10-20T02:37:58.893Z,10.18
2022-10-20T02:40:26.642Z,10.23
2022-10-20T02:42:53.610Z,10.25
2022-10-20T02:45:20.522Z,10.22
2022-10-20T02:47:47.531Z,10.25
2022-10-20T02:50:14.600Z,10.33
2022-10-20T02:52:42.468Z,10.40
2022-10-20T02:55:09.651Z,10.46
2022-10-20T02:57:36.734Z,10.48
2022-10-20T03:00:05.439Z,10.47
2022-10-20T03:02:32.322Z,10.22
2022-10-20T03:04:59.227Z,9.92
2022-10-20T03:07:26.096Z,9.71
2022-10-20T03:09:52.989Z,9.75
2022-10-20T03:12:19.903Z,9.79
2022-10-20T03:14:46.908Z,9.78
2022-10-20T03:17:13.829Z,9.81
2022-10-20T03:19:41.516Z,9.83
2022-10-20T03:22:08.404Z,9.80
2022-10-20T03:24:35.274Z,9.70
2022-10-20T03:27:02.116Z,9.58
2022-10-20T03:29:28.918Z,9.53
2022-10-20T03:31:55.825Z,9.52
2022-10-20T03:34:23.000Z,9.43
2022-10-20T03:36:49.842Z,9.39
2022-10-20T03:39:16.670Z,9.34
2022-10-20T03:41:43.508Z,9.28
2022-10-20T03:44:11.177Z,9.34
2022-10-20T03:46:38.057Z,9.40
2022-10-20T03:49:05.095Z,9.35
2022-10-20T03:51:31.966Z,9.45
2022-10-20T03:53:58.828Z,9.53
2022-10-20T03:56:25.709Z,9.59
2022-10-20T03:58:52.596Z,9.62
2022-10-20T04:01:21.696Z,9.62
2022-10-20T04:03:48.613Z,9.68
2022-10-20T04:06:16.022Z,9.71
2022-10-20T04:08:42.958Z,9.75
2022-10-20T04:11:09.968Z,9.81
2022-10-20T04:13:36.975Z,9.89
2022-10-20T04:16:03.991Z,9.89
2022-10-20T04:18:31.911Z,9.88
2022-10-20T04:20:59.348Z,9.88
2022-10-20T04:23:26.266Z,9.86
2022-10-20T04:25:53.106Z,9.85
2022-10-20T04:28:20.927Z,9.79
2022-10-20T04:30:48.150Z,9.73
2022-10-20T04:33:15.433Z,9.70
2022-10-20T04:35:42.355Z,9.65
2022-10-20T04:38:09.439Z,9.67
2022-10-20T04:40:36.343Z,9.77
2022-10-20T04:43:03.219Z,9.79
2022-10-20T04:45:30.115Z,9.79
2022-10-20T04:47:57.017Z,9.79
2022-10-20T04:50:23.917Z,9.75
2022-10-20T04:53:06.645Z,9.71
2022-10-20T04:55:33.703Z,9.68
2022-10-20T04:58:00.541Z,9.72
2022-10-20T05:00:27.574Z,9.74
2022-10-20T05:02:55.385Z,9.78
2022-10-20T05:05:22.221Z,9.83
2022-10-20T05:07:49.036Z,9.91
2022-10-20T05:10:15.926Z,9.98
2022-10-20T05:12:42.782Z,10.11
2022-10-20T05:15:09.893Z,10.14
2022-10-20T05:17:37.416Z,10.24
2022-10-20T05:20:04.743Z,10.28
2022-10-20T05:22:31.637Z,10.29
2022-10-20T05:25:12.688Z,10.30
2022-10-20T05:27:45.500Z,10.32
2022-10-20T05:30:12.330Z,10.38
2022-10-20T05:32:39.192Z,10.42
2022-10-20T05:35:06.533Z,10.46
2022-10-20T05:37:33.396Z,10.48
2022-10-20T05:40:03.689Z,10.51
2022-10-20T05:42:30.695Z,10.53
2022-10-20T05:44:57.581Z,10.54
2022-10-20T05:47:24.744Z,10.55
2022-10-20T05:49:51.689Z,10.60
2022-10-20T05:52:18.564Z,10.65
2022-10-20T05:54:45.467Z,10.65
2022-10-20T05:57:12.309Z,10.70
2022-10-20T05:59:39.313Z,10.67
2022-10-20T06:02:06.675Z,10.68
2022-10-20T06:04:33.758Z,10.66
2022-10-20T06:07:00.670Z,10.71
2022-10-20T06:09:27.561Z,10.72
2022-10-20T06:11:54.991Z,10.82
2022-10-20T06:14:22.628Z,10.84
2022-10-20T06:16:53.905Z,10.79
2022-10-20T06:19:20.840Z,10.81
2022-10-20T06:21:49.295Z,10.74
2022-10-20T06:24:17.251Z,10.76
2022-10-20T06:26:44.173Z,10.73
2022-10-20T06:29:14.538Z,10.72
2022-10-20T06:31:44.914Z,10.74
2022-10-20T06:34:18.271Z,10.59
2022-10-20T06:36:45.658Z,10.59
2022-10-20T06:39:15.767Z,10.63
2022-10-20T06:41:42.826Z,10.56
2022-10-20T06:44:19.398Z,10.59
2022-10-20T06:46:46.769Z,10.56
2022-10-20T06:49:14.191Z,10.57
2022-10-20T06:51:41.517Z,10.58
2022-10-20T06:54:09.412Z,10.55
2022-10-20T06:56:37.372Z,10.56
2022-10-20T06:59:04.304Z,10.59
2022-10-20T07:01:33.954Z,10.57
2022-10-20T07:04:06.288Z,10.53
2022-10-20T07:06:36.374Z,10.54
2022-10-20T07:09:05.159Z,10.55
2022-10-20T07:11:32.769Z,10.51
2022-10-20T07:14:00.663Z,10.26
2022-10-20T07:16:30.751Z,10.25
2022-10-20T07:18:57.859Z,10.26
2022-10-20T07:21:32.270Z,10.28
2022-10-20T07:24:04.484Z,10.36
2022-10-20T07:26:33.793Z,10.31
2022-10-20T07:29:03.022Z,10.51
2022-10-20T07:31:33.039Z,10.50
2022-10-20T07:34:12.846Z,10.45
2022-10-20T07:36:47.567Z,10.44
2022-10-20T07:39:14.469Z,10.38
2022-10-20T07:41:44.159Z,10.43
2022-10-20T07:44:11.354Z,10.45
2022-10-20T07:46:38.214Z,10.47
2022-10-20T07:51:52.123Z,10.52
2022-10-20T07:54:19.098Z,10.58
2022-10-20T07:56:46.522Z,10.55
2022-10-20T07:59:14.152Z,10.58
2022-10-20T08:01:41.922Z,10.52
2022-10-20T08:04:08.893Z,10.64
2022-10-20T08:06:35.765Z,10.63
2022-10-20T08:09:02.781Z,10.63
2022-10-20T08:11:29.881Z,10.66
2022-10-20T08:13:56.748Z,10.72
2022-10-20T08:16:30.527Z,10.68
2022-10-20T08:19:02.971Z,10.69
2022-10-20T08:21:30.041Z,10.64
2022-10-20T08:23:57.014Z,10.64
2022-10-20T08:26:25.971Z,10.64
2022-10-20T08:28:54.830Z,10.65
2022-10-20T08:31:23.306Z,10.83
2022-10-20T08:33:52.955Z,10.73
2022-10-20T08:36:21.143Z,10.78
2022-10-20T08:38:48.269Z,10.78
2022-10-20T08:41:25.681Z,10.78
2022-10-20T08:43:55.304Z,10.92
2022-10-20T08:46:29.069Z,11.03
2022-10-20T08:48:56.581Z,11.15
2022-10-20T08:51:34.781Z,11.13
2022-10-20T08:54:02.802Z,11.27
2022-10-20T08:56:31.209Z,11.42
2022-10-20T08:58:58.213Z,11.37
2022-10-20T09:01:29.351Z,11.34
2022-10-20T09:04:20.201Z,11.39
2022-10-20T09:06:53.688Z,11.54
2022-10-20T09:09:23.155Z,11.68
2022-10-20T09:11:51.272Z,12.10
2022-10-20T09:14:18.235Z,12.11
2022-10-20T09:16:59.688Z,11.99
2022-10-20T09:19:28.572Z,11.82
2022-10-20T09:21:58.470Z,11.93
2022-10-20T09:24:30.114Z,11.94
2022-10-20T09:27:15.955Z,12.08
2022-10-20T09:29:42.909Z,12.26
2022-10-20T09:32:45.929Z,12.43
2022-10-20T09:35:30.112Z,12.31
2022-10-20T09:38:02.203Z,12.55
2022-10-20T09:40:29.874Z,12.88
2022-10-20T09:43:11.056Z,12.86
2022-10-20T10:17:12.006Z,13.47
2022-10-20T10:19:38.841Z,13.69
2022-10-20T10:22:05.792Z,13.28
2022-10-20T10:24:42.759Z,13.17
2022-10-20T10:27:36.745Z,13.55
2022-10-20T10:30:37.333Z,13.41
2022-10-20T10:33:27.742Z,13.61
2022-10-20T10:35:55.125Z,13.83
2022-10-20T10:38:22.414Z,13.79
2022-10-20T10:41:16.174Z,14.01
2022-10-20T10:44:07.092Z,13.84
2022-10-20T10:49:27.912Z,13.23
2022-10-20T10:51:57.710Z,13.62
2022-10-20T10:54:39.482Z,13.51
2022-10-20T10:57:18.295Z,13.65
2022-10-20T10:59:49.842Z,13.59
2022-10-20T11:02:54.114Z,13.61
2022-10-20T11:05:46.844Z,13.58
2022-10-20T11:08:31.960Z,13.34
2022-10-20T11:11:07.530Z,13.46
2022-10-20T11:13:45.485Z,13.74
2022-10-20T11:16:15.406Z,13.70
2022-10-20T11:19:17.146Z,13.36
2022-10-20T11:22:28.571Z,13.29
2022-10-20T11:25:12.334Z,13.18
2022-10-20T11:27:39.512Z,13.11
2022-10-20T11:30:22.271Z,13.12
2022-10-20T11:33:06.315Z,13.22
2022-10-20T11:35:49.655Z,12.87
2022-10-20T11:38:31.473Z,13.32
2022-10-20T11:41:19.218Z,13.37
2022-10-20T11:44:27.533Z,13.34
2022-10-20T11:47:08.086Z,13.19
2022-10-20T11:49:35.253Z,13.20
2022-10-20T11:52:29.170Z,13.36
2022-10-20T11:55:17.318Z,13.23
2022-10-20T11:57:57.695Z,13.43
2022-10-20T12:00:38.156Z,13.49
2022-10-20T12:03:38.051Z,13.23
2022-10-20T12:06:19.711Z,13.00
2022-10-20T12:09:23.933Z,13.06
2022-10-20T12:11:57.494Z,13.48
2022-10-20T12:14:33.770Z,13.25
2022-10-20T12:17:27.142Z,13.21
2022-10-20T12:20:23.085Z,13.33
2022-10-20T12:22:55.333Z,13.23
2022-10-20T12:25:24.921Z,13.22
2022-10-20T12:28:22.948Z,13.08
2022-10-20T12:31:02.912Z,12.92
2022-10-20T12:33:59.339Z,12.96
2022-10-20T12:36:33.669Z,12.91
2022-10-20T12:39:29.679Z,12.96
2022-10-20T12:42:01.098Z,13.14
2022-10-20T12:44:32.413Z,13.21
2022-10-20T12:47:07.696Z,13.10
2022-10-20T12:49:43.196Z,13.15
2022-10-20T12:52:21.264Z,13.22
2022-10-20T12:54:55.540Z,12.98
2022-10-20T12:57:45.275Z,12.95
2022-10-20T13:00:23.606Z,12.78
2022-10-20T13:02:51.273Z,12.69
2022-10-20T13:05:44.633Z,12.59
2022-10-20T13:08:23.458Z,12.67
2022-10-20T13:10:50.918Z,12.67
2022-10-20T13:13:20.663Z,12.73
2022-10-20T13:15:51.673Z,12.63
2022-10-20T13:18:47.120Z,12.51
2022-10-20T13:21:32.814Z,12.61
2022-10-20T13:24:04.421Z,12.55
2022-10-20T13:26:51.613Z,12.53
2022-10-20T13:29:43.981Z,12.44
2022-10-20T13:32:16.863Z,12.25
2022-10-20T13:34:52.323Z,12.31
2022-10-20T13:37:55.246Z,12.27
2022-10-20T13:40:51.488Z,12.20
2022-10-20T13:43:29.996Z,12.19
2022-10-20T13:46:25.248Z,12.23
2022-10-20T13:49:15.526Z,12.11
2022-10-20T13:51:52.488Z,12.08
2022-10-20T13:54:44.878Z,12.10
2022-10-20T13:57:32.685Z,12.12
2022-10-20T14:00:17.554Z,12.19
2022-10-20T14:03:01.707Z,12.18
2022-10-20T14:05:36.100Z,12.27
2022-10-20T14:08:08.855Z,12.39
2022-10-20T14:10:38.836Z,12.38
2022-10-20T14:13:10.804Z,12.43
2022-10-20T14:15:38.113Z,12.50
2022-10-20T14:18:08.614Z,12.57
2022-10-20T14:20:42.019Z,12.46
2022-10-20T14:23:11.082Z,12.37
2022-10-20T14:25:38.837Z,12.44
2022-10-20T14:28:07.581Z,12.39
2022-10-20T14:30:38.695Z,12.42
2022-10-20T14:33:14.923Z,12.41
2022-10-20T14:35:50.502Z,12.40
2022-10-20T14:38:29.811Z,12.44
2022-10-20T14:40:58.469Z,12.42
2022-10-20T14:43:39.143Z,12.46
2022-10-20T14:46:09.084Z,12.42
2022-10-20T14:48:44.681Z,12.43
2022-10-20T14:51:45.103Z,12.49
2022-10-20T14:54:21.244Z,12.36
2022-10-20T14:57:19.247Z,12.35
2022-10-20T14:59:59.140Z,12.23
2022-10-20T15:02:29.484Z,12.09
2022-10-20T15:04:56.643Z,11.95
2022-10-20T15:07:28.452Z,11.81
2022-10-20T15:10:06.235Z,11.72
2022-10-20T15:12:42.711Z,11.58
2022-10-20T15:15:12.600Z,11.52
2022-10-20T15:17:43.964Z,11.39
2022-10-20T15:20:34.588Z,11.30
2022-10-20T15:23:22.854Z,11.23
2022-10-20T15:25:54.767Z,11.14
2022-10-20T15:28:45.896Z,11.07
2022-10-20T15:31:12.795Z,11.00
2022-10-20T15:33:42.891Z,10.89
2022-10-20T15:36:28.361Z,10.77
2022-10-20T15:38:56.567Z,10.72
2022-10-20T15:41:28.539Z,10.63
2022-10-20T15:43:55.543Z,10.60
2022-10-20T15:46:23.089Z,10.55
2022-10-20T15:48:50.132Z,10.49
2022-10-20T15:51:17.100Z,10.39
2022-10-20T15:53:46.132Z,10.35
2022-10-20T15:56:13.004Z,10.25
2022-10-20T15:58:40.129Z,10.17
2022-10-20T16:01:07.860Z,10.17
2022-10-20T16:03:35.872Z,10.13
2022-10-20T16:06:02.734Z,10.05
2022-10-20T16:08:29.813Z,10.03
2022-10-20T16:10:57.519Z,9.98
2022-10-20T16:13:24.467Z,9.90
2022-10-20T16:15:51.451Z,9.80
2022-10-20T16:18:18.298Z,9.70
2022-10-20T16:20:45.226Z,9.63
2022-10-20T16:23:12.219Z,9.60
2022-10-20T16:25:40.801Z,9.51
2022-10-20T16:28:07.909Z,9.45
2022-10-20T16:30:34.970Z,9.32
2022-10-20T16:33:02.043Z,9.26
2022-10-20T16:35:28.965Z,9.23
2022-10-20T16:37:56.184Z,9.22
2022-10-20T16:40:23.419Z,9.20
2022-10-20T16:42:50.286Z,9.18
2022-10-20T16:45:17.387Z,9.06
2022-10-20T16:47:44.347Z,8.98
2022-10-20T16:50:11.412Z,8.96
2022-10-20T16:52:38.485Z,8.93
2022-10-20T16:55:05.770Z,8.85
2022-10-20T16:57:38.977Z,8.83
2022-10-20T17:00:09.033Z,8.81
2022-10-20T17:02:36.685Z,8.68
2022-10-20T17:05:06.800Z,8.64
2022-10-20T17:07:36.613Z,8.59
2022-10-20T17:10:03.852Z,8.54
2022-10-20T17:12:30.771Z,8.53
2022-10-20T17:14:57.648Z,8.52
2022-10-20T17:17:24.616Z,8.46
2022-10-20T17:19:51.579Z,8.48
2022-10-20T17:22:19.968Z,8.39
2022-10-20T17:24:46.817Z,8.33
2022-10-20T17:27:13.719Z,8.31
2022-10-20T17:29:40.749Z,8.27
2022-10-20T17:32:07.622Z,8.29
2022-10-20T17:34:34.767Z,8.22
2022-10-20T17:37:01.701Z,8.15
2022-10-20T17:39:28.709Z,8.14
2022-10-20T17:41:55.910Z,8.14
2022-10-20T17:44:22.816Z,8.14
2022-10-20T17:46:49.682Z,7.97
2022-10-20T17:49:16.621Z,7.91
2022-10-20T17:51:44.309Z,7.97
2022-10-20T17:54:11.200Z,7.86
2022-10-20T17:56:40.265Z,7.48
2022-10-20T17:59:08.941Z,7.36
2022-10-20T18:01:39.010Z,7.37
2022-10-20T18:04:08.657Z,7.44
2022-10-20T18:06:36.805Z,7.44
2022-10-20T18:09:12.503Z,7.50
2022-10-20T18:11:43.964Z,7.65
2022-10-20T18:14:10.957Z,7.72
2022-10-20T18:16:39.673Z,7.53
2022-10-20T18:19:08.103Z,7.19
2022-10-20T18:21:35.022Z,6.98
2022-10-20T18:24:07.491Z,6.86
2022-10-20T18:26:36.893Z,6.86
2022-10-20T18:29:06.120Z,6.88
2022-10-20T18:31:35.196Z,6.92
2022-10-20T18:34:06.946Z,6.88
2022-10-20T18:36:39.107Z,6.90
2022-10-20T18:39:09.895Z,6.91
2022-10-20T18:41:39.857Z,6.76
2022-10-20T18:44:10.165Z,6.88
2022-10-20T18:46:37.764Z,6.82
2022-10-20T18:49:07.131Z,6.80
2022-10-20T18:51:36.021Z,6.72
2022-10-20T18:54:04.973Z,6.72
2022-10-20T18:56:32.136Z,6.89
2022-10-20T18:59:01.873Z,7.00
2022-10-20T19:01:31.317Z,7.10
2022-10-20T19:03:59.620Z,7.03
2022-10-20T19:06:29.615Z,7.12
2022-10-20T19:08:59.713Z,7.16
2022-10-20T19:11:29.480Z,7.14
2022-10-20T19:13:57.673Z,7.24
2022-10-20T19:16:30.514Z,7.43
2022-10-20T19:18:59.434Z,7.65
2022-10-20T19:21:28.316Z,7.82
2022-10-20T19:24:07.512Z,7.88
2022-10-20T19:26:43.691Z,7.84
2022-10-20T19:29:14.402Z,7.76
2022-10-20T19:31:46.166Z,7.62
2022-10-20T19:34:25.548Z,7.35
2022-10-20T19:36:53.121Z,7.11
2022-10-20T19:39:27.303Z,6.87
2022-10-20T19:41:56.707Z,6.69
2022-10-20T19:44:23.935Z,6.73
2022-10-20T19:46:52.155Z,6.63
2022-10-20T19:49:20.402Z,6.48
2022-10-20T19:51:47.522Z,6.54
2022-10-20T19:54:14.951Z,6.44
2022-10-20T19:56:42.232Z,6.29
2022-10-20T19:59:09.893Z,6.33
2022-10-20T20:01:37.670Z,6.46
2022-10-20T20:04:05.596Z,6.42
2022-10-20T20:06:34.287Z,6.17
2022-10-20T20:09:04.260Z,5.98
2022-10-20T20:11:31.321Z,5.88
2022-10-20T20:14:00.878Z,5.88
2022-10-20T20:16:29.217Z,5.84
2022-10-20T20:18:56.314Z,5.79
2022-10-20T20:21:23.953Z,5.79
2022-10-20T20:23:59.201Z,5.71
2022-10-20T20:26:27.718Z,5.58
2022-10-20T20:28:55.982Z,5.51
2022-10-20T20:31:23.386Z,5.52
2022-10-20T20:33:50.853Z,5.67
2022-10-20T20:36:17.751Z,5.71
2022-10-20T20:38:44.819Z,5.75
2022-10-20T20:41:17.271Z,5.58
2022-10-20T20:43:47.555Z,5.55
2022-10-20T20:46:16.836Z,5.65
2022-10-20T20:48:44.277Z,5.62
2022-10-20T20:51:11.963Z,5.57
2022-10-20T20:53:39.917Z,5.57
2022-10-20T20:56:10.062Z,5.59
2022-10-20T20:58:37.433Z,5.59
2022-10-20T21:01:13.761Z,5.65
2022-10-20T21:03:40.899Z,5.74
2022-10-20T21:06:13.755Z,5.91
2022-10-20T21:08:43.282Z,6.09
2022-10-20T21:11:18.468Z,6.18
2022-10-20T21:13:46.807Z,6.18
2022-10-20T21:16:20.776Z,6.17
2022-10-20T21:18:49.611Z,6.15
2022-10-20T21:21:24.632Z,6.17
2022-10-20T21:23:52.172Z,6.21
2022-10-20T21:26:20.766Z,6.15
2022-10-20T21:28:48.156Z,6.23
2022-10-20T21:31:18.262Z,6.36
2022-10-20T21:33:46.448Z,6.52
2022-10-20T21:36:16.070Z,6.66
2022-10-20T21:38:43.978Z,6.79
2022-10-20T21:41:16.413Z,6.80
2022-10-20T21:43:48.085Z,6.82
2022-10-20T21:46:21.208Z,6.74
2022-10-20T21:48:50.119Z,6.73
2022-10-20T21:51:26.638Z,6.58
2022-10-20T21:54:02.141Z,6.35
2022-10-20T21:56:29.556Z,6.08
2022-10-20T21:58:56.598Z,5.93
2022-10-20T22:01:25.206Z,5.94
2022-10-20T22:03:53.753Z,5.96
2022-10-20T22:06:23.047Z,6.07
2022-10-20T22:08:52.035Z,6.27
2022-10-20T22:11:22.702Z,6.29
2022-10-20T22:13:50.202Z,6.34
2022-10-20T22:16:20.699Z,6.33
2022-10-20T22:18:47.675Z,6.33
2022-10-20T22:21:17.454Z,6.34
2022-10-20T22:23:45.470Z,6.30
2022-10-20T22:26:13.460Z,6.29
2022-10-20T22:28:41.053Z,6.27
2022-10-20T22:31:08.120Z,6.29
2022-10-20T22:33:35.464Z,6.25
2022-10-20T22:36:03.814Z,6.20
2022-10-20T22:38:30.860Z,6.20
2022-10-20T22:40:59.261Z,6.14
2022-10-20T22:43:27.384Z,6.15
2022-10-20T22:45:54.446Z,6.06
2022-10-20T22:48:21.670Z,6.07
2022-10-20T22:50:48.841Z,6.05
2022-10-20T22:53:15.881Z,5.98
2022-10-20T22:55:42.804Z,5.95
2022-10-20T22:58:10.038Z,5.89
2022-10-20T23:00:40.101Z,5.83
2022-10-20T23:03:07.268Z,5.83
2022-10-20T23:05:34.194Z,5.78
2022-10-20T23:08:01.117Z,5.71
2022-10-20T23:10:28.288Z,5.59
2022-10-20T23:12:55.143Z,5.50
2022-10-20T23:15:22.012Z,5.45
2022-10-20T23:17:48.910Z,5.38
2022-10-20T23:20:15.980Z,5.41
2022-10-20T23:22:42.876Z,5.37
2022-10-20T23:25:10.015Z,5.39
2022-10-20T23:27:37.352Z,5.37
2022-10-20T23:30:04.815Z,5.34
2022-10-20T23:32:31.740Z,5.38
2022-10-20T23:34:58.736Z,5.34
2022-10-20T23:37:25.583Z,5.24
2022-10-20T23:39:52.450Z,5.17
2022-10-20T23:42:19.278Z,5.10
2022-10-20T23:44:46.179Z,4.99
2022-10-20T23:47:13.039Z,4.85
2022-10-20T23:49:39.895Z,4.84
2022-10-20T23:52:06.722Z,4.80
2022-10-20T23:54:33.645Z,4.80
2022-10-20T23:57:00.548Z,4.90
2022-10-20T23:59:27.374Z,5.03
